Venango Regional Airport
KFKL : now visible

Airfield :











YOU CAN JOIN US ON...

 
LOGIN :

Register | Disclaimer

   EN    FR    IT 

 









Legend :    VFR   Marginal VFR   IFR   Intensive IFR   Very Intensive IFR
Visi :
Ceiling :
>= 8 km
>= 3000ft
5 to 8 km
1000 to 3000 ft
1500m to 5 km
500 to 1000 ft
800 to 1500m
200 to 500 ft
< 800m
< 200 ft
Symbols :   Thunderstorms  Fog  Heavy snow  Heavy precipitations  Wind > 20 kt







- Airport Elevation : 1540 ft


KFKL - Venango Regional

CURRENT METAR :
  • 191456Z AUTO 23006KT 10SM OVC012 26/23 A2999 RMK AO2 SLP144 6//// T02610233 51006

EXPIRED METARs :
  • 191356Z AUTO 24009KT 10SM OVC012 26/23 A2999 RMK AO2 SLP143 T02610233
  • 191313Z AUTO 24009KT 10SM BKN012 26/23 A2998 RMK AO2
  • 191256Z AUTO 25007KT 10SM FEW012 26/23 A2998 RMK AO2 SLP141 T02560228

TAF KFKL
Valid from the 19 at 12:00 until the 20 at 12:00 UTC


191125Z 1912/2012 22008KT P6SM SCT250
FM191800 23012G18KT P6SM BKN040
FM200300 23008KT P6SM BKN025
KZOB FIR / North America



MET'MAP, your aeronautical weather chart ! - Copyright ORBIFLY December 2007 - Disclaimer

ORBIFLY MET'MAP TEAM :

Programming & Development : Alexandra Zaïnal
Concept & Development : Baudouin d'Aumeries
Co-Development & Prog : Marc-Olivier Méhu
Technical & hardware support : Manuel Goepfert

Contact : metmap@orbifly.com




SOURCES & CREDITS :

   NOAA       Earth
Advisory